sensor_id;sensor_type;location;lat;lon;timestamp;pressure;altitude;pressure_sealevel;temperature;humidity
76205;BME280;64986;55.672;37.628;2022-11-13T00:01:25;98720.06;;;9.96;55.63
76205;BME280;64986;55.672;37.628;2022-11-13T00:03:51;98642.94;;;10.02;56.24
76205;BME280;64986;55.672;37.628;2022-11-13T00:06:17;98710.28;;;10.03;56.44
76205;BME280;64986;55.672;37.628;2022-11-13T00:08:43;98662.50;;;10.06;56.06
76205;BME280;64986;55.672;37.628;2022-11-13T00:11:14;98703.69;;;10.12;55.63
76205;BME280;64986;55.672;37.628;2022-11-13T00:13:42;98681.13;;;10.05;56.45
76205;BME280;64986;55.672;37.628;2022-11-13T00:16:13;98687.34;;;10.10;56.36
76205;BME280;64986;55.672;37.628;2022-11-13T00:18:39;98613.28;;;9.95;54.96
76205;BME280;64986;55.672;37.628;2022-11-13T00:21:19;98692.47;;;10.05;54.68
76205;BME280;64986;55.672;37.628;2022-11-13T00:23:46;98649.75;;;9.91;53.65
76205;BME280;64986;55.672;37.628;2022-11-13T00:26:14;98757.81;;;9.83;54.97
76205;BME280;64986;55.672;37.628;2022-11-13T00:28:41;98642.25;;;9.77;53.88
76205;BME280;64986;55.672;37.628;2022-11-13T00:31:08;98715.59;;;9.60;54.84
76205;BME280;64986;55.672;37.628;2022-11-13T00:33:34;98712.59;;;9.56;55.06
76205;BME280;64986;55.672;37.628;2022-11-13T00:36:20;98686.75;;;9.53;55.51
76205;BME280;64986;55.672;37.628;2022-11-13T00:38:46;98712.41;;;9.76;54.79
76205;BME280;64986;55.672;37.628;2022-11-13T00:41:12;98695.50;;;9.65;55.27
76205;BME280;64986;55.672;37.628;2022-11-13T00:43:37;98709.25;;;9.67;55.22
76205;BME280;64986;55.672;37.628;2022-11-13T00:46:03;98685.97;;;9.71;55.62
76205;BME280;64986;55.672;37.628;2022-11-13T00:48:29;98666.75;;;9.70;55.52
76205;BME280;64986;55.672;37.628;2022-11-13T00:50:54;98713.16;;;9.58;55.67
76205;BME280;64986;55.672;37.628;2022-11-13T00:53:20;98729.47;;;9.85;55.36
76205;BME280;64986;55.672;37.628;2022-11-13T00:55:46;98666.25;;;9.80;54.86
76205;BME280;64986;55.672;37.628;2022-11-13T00:58:12;98708.53;;;9.79;55.30
76205;BME280;64986;55.672;37.628;2022-11-13T01:00:38;98730.28;;;9.86;55.19
76205;BME280;64986;55.672;37.628;2022-11-13T01:03:04;98676.53;;;9.82;54.10
76205;BME280;64986;55.672;37.628;2022-11-13T01:05:30;98724.16;;;9.92;54.11
76205;BME280;64986;55.672;37.628;2022-11-13T01:07:59;98715.84;;;9.77;55.41
76205;BME280;64986;55.672;37.628;2022-11-13T01:10:24;98630.84;;;9.83;54.78
76205;BME280;64986;55.672;37.628;2022-11-13T01:12:50;98742.53;;;9.73;53.74
76205;BME280;64986;55.672;37.628;2022-11-13T01:15:15;98676.91;;;9.67;53.85
76205;BME280;64986;55.672;37.628;2022-11-13T01:17:41;98707.56;;;9.73;54.71
76205;BME280;64986;55.672;37.628;2022-11-13T01:20:06;98719.56;;;9.69;54.62
76205;BME280;64986;55.672;37.628;2022-11-13T01:22:32;98699.91;;;9.71;54.32
76205;BME280;64986;55.672;37.628;2022-11-13T01:24:57;98713.50;;;9.68;54.52
76205;BME280;64986;55.672;37.628;2022-11-13T01:27:23;98748.13;;;9.59;54.92
76205;BME280;64986;55.672;37.628;2022-11-13T01:29:48;98792.00;;;9.58;55.07
76205;BME280;64986;55.672;37.628;2022-11-13T01:32:14;98733.59;;;9.56;55.58
76205;BME280;64986;55.672;37.628;2022-11-13T01:34:39;98755.06;;;9.53;55.07
76205;BME280;64986;55.672;37.628;2022-11-13T01:37:05;98689.22;;;9.48;55.53
76205;BME280;64986;55.672;37.628;2022-11-13T01:39:30;98749.81;;;9.53;54.84
76205;BME280;64986;55.672;37.628;2022-11-13T01:41:56;98730.72;;;9.39;55.08
76205;BME280;64986;55.672;37.628;2022-11-13T01:44:21;98722.19;;;9.44;54.44
76205;BME280;64986;55.672;37.628;2022-11-13T01:46:52;98727.13;;;9.34;54.74
76205;BME280;64986;55.672;37.628;2022-11-13T01:49:26;98704.81;;;9.25;54.64
76205;BME280;64986;55.672;37.628;2022-11-13T01:51:54;98720.97;;;9.22;54.62
76205;BME280;64986;55.672;37.628;2022-11-13T01:54:27;98676.41;;;9.15;55.47
76205;BME280;64986;55.672;37.628;2022-11-13T01:56:54;98681.66;;;9.15;55.05
76205;BME280;64986;55.672;37.628;2022-11-13T01:59:24;98701.44;;;8.93;55.21
76205;BME280;64986;55.672;37.628;2022-11-13T02:01:50;98687.91;;;8.89;56.24
76205;BME280;64986;55.672;37.628;2022-11-13T02:04:16;98698.19;;;8.90;56.76
76205;BME280;64986;55.672;37.628;2022-11-13T02:06:48;98697.72;;;9.00;55.93
76205;BME280;64986;55.672;37.628;2022-11-13T02:09:17;98708.00;;;9.02;56.98
76205;BME280;64986;55.672;37.628;2022-11-13T02:11:44;98723.97;;;9.00;56.17
76205;BME280;64986;55.672;37.628;2022-11-13T02:14:11;98674.97;;;8.94;57.20
76205;BME280;64986;55.672;37.628;2022-11-13T02:16:39;98673.53;;;8.92;57.24
76205;BME280;64986;55.672;37.628;2022-11-13T02:19:11;98715.84;;;9.08;56.47
76205;BME280;64986;55.672;37.628;2022-11-13T02:24:40;98685.88;;;9.16;56.12
76205;BME280;64986;55.672;37.628;2022-11-13T02:27:15;98689.41;;;9.03;55.80
76205;BME280;64986;55.672;37.628;2022-11-13T02:29:42;98691.88;;;8.98;57.37
76205;BME280;64986;55.672;37.628;2022-11-13T02:32:07;98697.56;;;8.95;56.98
76205;BME280;64986;55.672;37.628;2022-11-13T02:34:33;98701.16;;;9.01;57.77
76205;BME280;64986;55.672;37.628;2022-11-13T02:36:58;98688.09;;;8.94;57.73
76205;BME280;64986;55.672;37.628;2022-11-13T02:39:24;98687.19;;;8.75;58.50
76205;BME280;64986;55.672;37.628;2022-11-13T02:41:49;98704.03;;;8.61;58.79
76205;BME280;64986;55.672;37.628;2022-11-13T02:44:14;98663.47;;;8.88;59.10
76205;BME280;64986;55.672;37.628;2022-11-13T02:46:40;98696.88;;;8.75;58.87
76205;BME280;64986;55.672;37.628;2022-11-13T02:49:05;98644.53;;;8.61;59.87
76205;BME280;64986;55.672;37.628;2022-11-13T02:51:31;98666.97;;;8.51;60.06
76205;BME280;64986;55.672;37.628;2022-11-13T02:53:57;98666.00;;;8.45;60.14
76205;BME280;64986;55.672;37.628;2022-11-13T02:56:23;98680.06;;;8.57;60.72
76205;BME280;64986;55.672;37.628;2022-11-13T02:58:48;98662.16;;;8.48;60.68
76205;BME280;64986;55.672;37.628;2022-11-13T03:01:13;98679.72;;;8.47;61.12
76205;BME280;64986;55.672;37.628;2022-11-13T03:03:39;98664.44;;;8.31;61.02
76205;BME280;64986;55.672;37.628;2022-11-13T03:06:05;98665.66;;;8.28;61.12
76205;BME280;64986;55.672;37.628;2022-11-13T03:08:30;98682.19;;;8.29;61.19
76205;BME280;64986;55.672;37.628;2022-11-13T03:10:56;98665.06;;;8.26;60.75
76205;BME280;64986;55.672;37.628;2022-11-13T03:13:21;98654.56;;;8.33;60.87
76205;BME280;64986;55.672;37.628;2022-11-13T03:15:47;98656.97;;;8.34;60.65
76205;BME280;64986;55.672;37.628;2022-11-13T03:18:13;98666.03;;;8.39;60.22
76205;BME280;64986;55.672;37.628;2022-11-13T03:20:40;98678.16;;;8.40;59.96
76205;BME280;64986;55.672;37.628;2022-11-13T03:23:06;98664.97;;;8.46;60.24
76205;BME280;64986;55.672;37.628;2022-11-13T03:25:32;98652.13;;;8.38;60.08
76205;BME280;64986;55.672;37.628;2022-11-13T03:27:58;98671.25;;;8.45;60.10
76205;BME280;64986;55.672;37.628;2022-11-13T03:30:24;98658.53;;;8.49;58.71
76205;BME280;64986;55.672;37.628;2022-11-13T03:32:54;98671.75;;;8.60;59.23
76205;BME280;64986;55.672;37.628;2022-11-13T03:35:23;98654.91;;;8.75;59.00
76205;BME280;64986;55.672;37.628;2022-11-13T03:37:49;98669.59;;;8.51;59.77
76205;BME280;64986;55.672;37.628;2022-11-13T03:40:14;98672.53;;;8.23;59.69
76205;BME280;64986;55.672;37.628;2022-11-13T03:42:40;98639.88;;;8.25;59.30
76205;BME280;64986;55.672;37.628;2022-11-13T03:45:05;98643.88;;;8.28;59.65
76205;BME280;64986;55.672;37.628;2022-11-13T03:47:31;98659.63;;;8.28;59.89
76205;BME280;64986;55.672;37.628;2022-11-13T03:49:56;98623.50;;;8.30;58.81
76205;BME280;64986;55.672;37.628;2022-11-13T03:52:22;98686.56;;;8.48;58.62
76205;BME280;64986;55.672;37.628;2022-11-13T03:54:47;98646.78;;;8.51;56.38
76205;BME280;64986;55.672;37.628;2022-11-13T03:57:14;98637.38;;;8.44;56.79
76205;BME280;64986;55.672;37.628;2022-11-13T03:59:39;98689.03;;;8.37;56.17
76205;BME280;64986;55.672;37.628;2022-11-13T04:02:05;98659.97;;;8.38;56.60
76205;BME280;64986;55.672;37.628;2022-11-13T04:04:30;98699.06;;;8.46;57.39
76205;BME280;64986;55.672;37.628;2022-11-13T04:06:55;98615.22;;;8.01;59.26
76205;BME280;64986;55.672;37.628;2022-11-13T04:09:21;98648.38;;;7.63;58.70
76205;BME280;64986;55.672;37.628;2022-11-13T04:11:46;98688.34;;;7.25;58.01
76205;BME280;64986;55.672;37.628;2022-11-13T04:14:12;98646.88;;;7.22;60.05
76205;BME280;64986;55.672;37.628;2022-11-13T04:16:37;98677.91;;;7.12;60.99
76205;BME280;64986;55.672;37.628;2022-11-13T04:19:03;98646.69;;;7.04;61.24
76205;BME280;64986;55.672;37.628;2022-11-13T04:21:28;98655.75;;;7.08;60.98
76205;BME280;64986;55.672;37.628;2022-11-13T04:23:54;98668.44;;;7.11;61.38
76205;BME280;64986;55.672;37.628;2022-11-13T04:26:19;98698.22;;;7.23;59.88
76205;BME280;64986;55.672;37.628;2022-11-13T04:28:45;98707.88;;;7.42;60.08
76205;BME280;64986;55.672;37.628;2022-11-13T04:31:10;98683.09;;;7.45;58.79
76205;BME280;64986;55.672;37.628;2022-11-13T04:33:35;98702.81;;;7.54;58.49
76205;BME280;64986;55.672;37.628;2022-11-13T04:36:01;98731.97;;;7.84;58.09
76205;BME280;64986;55.672;37.628;2022-11-13T04:38:26;98731.13;;;7.90;57.74
76205;BME280;64986;55.672;37.628;2022-11-13T04:40:52;98708.16;;;7.92;56.92
76205;BME280;64986;55.672;37.628;2022-11-13T04:43:37;98716.25;;;7.84;57.02
76205;BME280;64986;55.672;37.628;2022-11-13T04:46:03;98699.34;;;7.73;57.60
76205;BME280;64986;55.672;37.628;2022-11-13T04:48:28;98713.66;;;7.71;57.46
76205;BME280;64986;55.672;37.628;2022-11-13T04:50:54;98726.34;;;7.74;57.90
76205;BME280;64986;55.672;37.628;2022-11-13T04:53:19;98703.22;;;7.58;58.10
76205;BME280;64986;55.672;37.628;2022-11-13T04:55:45;98694.56;;;7.50;58.14
76205;BME280;64986;55.672;37.628;2022-11-13T04:58:10;98692.53;;;7.46;58.71
76205;BME280;64986;55.672;37.628;2022-11-13T05:00:36;98714.91;;;7.48;59.08
76205;BME280;64986;55.672;37.628;2022-11-13T05:03:01;98697.19;;;7.50;58.11
76205;BME280;64986;55.672;37.628;2022-11-13T05:05:26;98718.13;;;7.64;58.17
76205;BME280;64986;55.672;37.628;2022-11-13T05:07:52;98713.47;;;7.66;57.04
76205;BME280;64986;55.672;37.628;2022-11-13T05:10:17;98722.13;;;7.66;58.01
76205;BME280;64986;55.672;37.628;2022-11-13T05:12:43;98710.66;;;7.61;58.25
76205;BME280;64986;55.672;37.628;2022-11-13T05:15:08;98710.22;;;7.70;58.15
76205;BME280;64986;55.672;37.628;2022-11-13T05:17:34;98729.72;;;7.94;58.26
76205;BME280;64986;55.672;37.628;2022-11-13T05:19:59;98725.09;;;7.83;57.62
76205;BME280;64986;55.672;37.628;2022-11-13T05:22:25;98733.38;;;7.87;57.97
76205;BME280;64986;55.672;37.628;2022-11-13T05:24:50;98733.16;;;7.88;58.08
76205;BME280;64986;55.672;37.628;2022-11-13T05:27:16;98719.66;;;7.85;57.64
76205;BME280;64986;55.672;37.628;2022-11-13T05:29:41;98684.94;;;8.09;57.27
76205;BME280;64986;55.672;37.628;2022-11-13T05:32:07;98755.06;;;8.14;57.50
76205;BME280;64986;55.672;37.628;2022-11-13T05:34:32;98747.84;;;8.09;57.60
76205;BME280;64986;55.672;37.628;2022-11-13T05:36:57;98737.41;;;7.89;58.35
76205;BME280;64986;55.672;37.628;2022-11-13T05:39:23;98686.44;;;7.78;58.86
76205;BME280;64986;55.672;37.628;2022-11-13T05:41:48;98722.50;;;7.83;58.63
76205;BME280;64986;55.672;37.628;2022-11-13T05:44:14;98763.63;;;7.76;59.32
76205;BME280;64986;55.672;37.628;2022-11-13T05:46:39;98742.28;;;7.72;58.93
76205;BME280;64986;55.672;37.628;2022-11-13T05:49:05;98722.94;;;7.73;58.83
76205;BME280;64986;55.672;37.628;2022-11-13T05:51:32;98756.97;;;7.73;58.96
76205;BME280;64986;55.672;37.628;2022-11-13T05:53:58;98747.06;;;7.95;58.49
76205;BME280;64986;55.672;37.628;2022-11-13T05:56:29;98736.81;;;7.87;58.81
76205;BME280;64986;55.672;37.628;2022-11-13T05:58:57;98780.31;;;8.01;58.38
76205;BME280;64986;55.672;37.628;2022-11-13T06:01:29;98725.22;;;8.08;58.16
76205;BME280;64986;55.672;37.628;2022-11-13T06:03:56;98719.34;;;8.26;58.18
76205;BME280;64986;55.672;37.628;2022-11-13T06:06:22;98756.41;;;8.29;57.36
76205;BME280;64986;55.672;37.628;2022-11-13T06:08:50;98800.22;;;8.16;58.24
76205;BME280;64986;55.672;37.628;2022-11-13T06:11:17;98761.59;;;7.78;59.19
76205;BME280;64986;55.672;37.628;2022-11-13T06:13:44;98765.47;;;7.16;62.42
76205;BME280;64986;55.672;37.628;2022-11-13T06:16:18;98842.69;;;6.85;64.13
76205;BME280;64986;55.672;37.628;2022-11-13T06:18:44;98782.84;;;6.56;66.51
76205;BME280;64986;55.672;37.628;2022-11-13T06:21:17;98903.47;;;6.81;66.29
76205;BME280;64986;55.672;37.628;2022-11-13T06:23:43;98849.31;;;6.75;66.79
76205;BME280;64986;55.672;37.628;2022-11-13T06:26:14;98846.75;;;6.47;67.13
76205;BME280;64986;55.672;37.628;2022-11-13T06:28:40;98801.25;;;6.34;67.43
76205;BME280;64986;55.672;37.628;2022-11-13T06:31:08;98834.00;;;6.30;67.61
76205;BME280;64986;55.672;37.628;2022-11-13T06:33:35;98834.47;;;6.40;67.24
76205;BME280;64986;55.672;37.628;2022-11-13T06:36:03;98834.41;;;6.27;68.04
76205;BME280;64986;55.672;37.628;2022-11-13T06:38:31;98813.50;;;6.34;67.42
76205;BME280;64986;55.672;37.628;2022-11-13T06:40:56;98860.00;;;6.38;66.75
76205;BME280;64986;55.672;37.628;2022-11-13T06:43:22;98843.69;;;6.36;66.35
76205;BME280;64986;55.672;37.628;2022-11-13T06:45:47;98872.09;;;6.46;66.25
76205;BME280;64986;55.672;37.628;2022-11-13T06:48:13;98883.19;;;6.55;66.09
76205;BME280;64986;55.672;37.628;2022-11-13T06:50:39;98836.38;;;6.60;65.60
76205;BME280;64986;55.672;37.628;2022-11-13T06:53:04;98859.34;;;6.71;65.25
76205;BME280;64986;55.672;37.628;2022-11-13T06:55:30;98819.69;;;6.67;64.98
76205;BME280;64986;55.672;37.628;2022-11-13T06:57:55;98875.50;;;6.81;65.44
76205;BME280;64986;55.672;37.628;2022-11-13T07:00:21;98907.09;;;6.86;64.61
76205;BME280;64986;55.672;37.628;2022-11-13T07:02:49;98902.63;;;6.74;63.86
76205;BME280;64986;55.672;37.628;2022-11-13T07:05:15;98872.16;;;6.59;64.52
76205;BME280;64986;55.672;37.628;2022-11-13T07:07:41;98932.00;;;6.76;64.06
76205;BME280;64986;55.672;37.628;2022-11-13T07:10:07;98907.50;;;6.90;64.14
76205;BME280;64986;55.672;37.628;2022-11-13T07:12:32;98934.16;;;7.13;62.34
76205;BME280;64986;55.672;37.628;2022-11-13T07:14:58;98847.63;;;7.21;62.77
76205;BME280;64986;55.672;37.628;2022-11-13T07:17:23;98915.88;;;7.20;61.79
76205;BME280;64986;55.672;37.628;2022-11-13T07:19:49;98969.81;;;7.14;61.65
76205;BME280;64986;55.672;37.628;2022-11-13T07:22:14;98918.03;;;7.10;61.83
76205;BME280;64986;55.672;37.628;2022-11-13T07:24:39;98968.06;;;7.28;60.98
76205;BME280;64986;55.672;37.628;2022-11-13T07:27:07;98925.09;;;7.16;60.16
76205;BME280;64986;55.672;37.628;2022-11-13T07:29:32;98917.53;;;7.34;59.51
76205;BME280;64986;55.672;37.628;2022-11-13T07:31:58;98941.25;;;7.33;59.95
76205;BME280;64986;55.672;37.628;2022-11-13T07:34:23;98883.88;;;7.38;59.01
76205;BME280;64986;55.672;37.628;2022-11-13T07:36:49;98960.38;;;7.20;58.15
76205;BME280;64986;55.672;37.628;2022-11-13T07:39:14;99000.31;;;7.35;57.72
76205;BME280;64986;55.672;37.628;2022-11-13T07:41:40;98910.63;;;7.20;58.64
76205;BME280;64986;55.672;37.628;2022-11-13T07:44:05;98996.28;;;7.39;57.54
76205;BME280;64986;55.672;37.628;2022-11-13T07:46:31;98935.03;;;7.40;58.39
76205;BME280;64986;55.672;37.628;2022-11-13T07:48:56;98908.06;;;7.40;58.00
76205;BME280;64986;55.672;37.628;2022-11-13T07:51:22;98869.00;;;7.45;58.12
76205;BME280;64986;55.672;37.628;2022-11-13T07:53:48;98930.84;;;7.53;56.63
76205;BME280;64986;55.672;37.628;2022-11-13T07:56:13;98923.00;;;7.53;56.91
76205;BME280;64986;55.672;37.628;2022-11-13T07:58:39;98944.78;;;7.60;57.18
76205;BME280;64986;55.672;37.628;2022-11-13T08:01:05;98957.72;;;7.81;56.72
76205;BME280;64986;55.672;37.628;2022-11-13T08:03:31;98938.34;;;7.82;57.00
76205;BME280;64986;55.672;37.628;2022-11-13T08:06:04;98880.72;;;7.82;56.46
76205;BME280;64986;55.672;37.628;2022-11-13T08:08:31;98953.66;;;7.72;56.86
76205;BME280;64986;55.672;37.628;2022-11-13T08:10:57;98938.97;;;7.71;56.75
76205;BME280;64986;55.672;37.628;2022-11-13T08:13:23;98924.63;;;7.67;56.43
76205;BME280;64986;55.672;37.628;2022-11-13T08:15:48;98953.22;;;7.62;56.72
76205;BME280;64986;55.672;37.628;2022-11-13T08:18:14;98918.16;;;7.43;56.88
76205;BME280;64986;55.672;37.628;2022-11-13T08:20:39;99004.84;;;7.68;56.19
76205;BME280;64986;55.672;37.628;2022-11-13T08:23:05;98959.09;;;7.64;57.15
76205;BME280;64986;55.672;37.628;2022-11-13T08:25:31;98986.69;;;7.60;57.66
76205;BME280;64986;55.672;37.628;2022-11-13T08:27:58;98945.59;;;7.67;57.03
76205;BME280;64986;55.672;37.628;2022-11-13T08:30:25;98987.28;;;7.62;57.60
76205;BME280;64986;55.672;37.628;2022-11-13T08:32:51;98967.38;;;7.74;57.64
76205;BME280;64986;55.672;37.628;2022-11-13T08:35:18;98962.13;;;7.74;56.97
76205;BME280;64986;55.672;37.628;2022-11-13T08:37:43;98941.19;;;7.81;56.54
76205;BME280;64986;55.672;37.628;2022-11-13T08:40:09;98992.34;;;7.76;56.86
76205;BME280;64986;55.672;37.628;2022-11-13T08:42:35;98994.19;;;7.83;56.04
76205;BME280;64986;55.672;37.628;2022-11-13T08:45:00;98959.53;;;7.87;55.89
76205;BME280;64986;55.672;37.628;2022-11-13T08:47:26;99008.13;;;8.03;55.75
76205;BME280;64986;55.672;37.628;2022-11-13T08:49:53;98942.19;;;7.99;56.01
76205;BME280;64986;55.672;37.628;2022-11-13T08:52:19;98965.19;;;8.11;56.19
76205;BME280;64986;55.672;37.628;2022-11-13T08:54:44;98953.72;;;9.16;53.42
76205;BME280;64986;55.672;37.628;2022-11-13T08:57:09;98959.84;;;9.80;52.06
76205;BME280;64986;55.672;37.628;2022-11-13T08:59:35;98969.91;;;9.51;52.69
76205;BME280;64986;55.672;37.628;2022-11-13T09:02:00;98932.09;;;9.14;53.31
76205;BME280;64986;55.672;37.628;2022-11-13T09:04:26;98972.97;;;8.90;53.26
76205;BME280;64986;55.672;37.628;2022-11-13T09:06:52;98975.25;;;8.73;54.38
76205;BME280;64986;55.672;37.628;2022-11-13T09:09:18;98976.25;;;8.72;54.39
76205;BME280;64986;55.672;37.628;2022-11-13T09:11:44;99012.34;;;8.83;54.55
76205;BME280;64986;55.672;37.628;2022-11-13T09:14:10;98947.53;;;8.90;53.81
76205;BME280;64986;55.672;37.628;2022-11-13T09:16:35;98966.63;;;9.17;53.30
76205;BME280;64986;55.672;37.628;2022-11-13T09:19:02;98964.88;;;9.43;53.40
76205;BME280;64986;55.672;37.628;2022-11-13T09:21:28;98992.41;;;9.34;53.48
76205;BME280;64986;55.672;37.628;2022-11-13T09:23:54;99018.13;;;9.18;53.48
76205;BME280;64986;55.672;37.628;2022-11-13T09:26:19;98985.50;;;10.09;51.80
76205;BME280;64986;55.672;37.628;2022-11-13T09:28:45;98943.72;;;10.01;50.97
76205;BME280;64986;55.672;37.628;2022-11-13T09:31:10;98975.75;;;11.03;50.19
76205;BME280;64986;55.672;37.628;2022-11-13T09:33:36;98952.41;;;11.25;49.39
76205;BME280;64986;55.672;37.628;2022-11-13T09:36:01;98977.31;;;11.59;48.68
76205;BME280;64986;55.672;37.628;2022-11-13T09:38:27;98979.00;;;12.25;47.20
76205;BME280;64986;55.672;37.628;2022-11-13T09:41:16;98980.59;;;12.26;45.62
76205;BME280;64986;55.672;37.628;2022-11-13T09:43:46;98988.47;;;12.03;47.08
76205;BME280;64986;55.672;37.628;2022-11-13T09:49:12;98988.22;;;10.96;46.90
76205;BME280;64986;55.672;37.628;2022-11-13T09:51:39;99015.28;;;10.35;48.43
76205;BME280;64986;55.672;37.628;2022-11-13T09:54:08;98990.28;;;9.62;50.21
76205;BME280;64986;55.672;37.628;2022-11-13T09:56:39;99032.28;;;9.11;51.63
76205;BME280;64986;55.672;37.628;2022-11-13T09:59:14;99007.75;;;8.66;51.63
76205;BME280;64986;55.672;37.628;2022-11-13T10:12:27;99003.69;;;8.03;51.84
76205;BME280;64986;55.672;37.628;2022-11-13T10:14:56;99017.06;;;8.42;51.48
76205;BME280;64986;55.672;37.628;2022-11-13T10:17:40;99040.25;;;8.65;50.55
76205;BME280;64986;55.672;37.628;2022-11-13T10:20:21;99081.81;;;8.94;50.44
76205;BME280;64986;55.672;37.628;2022-11-13T10:22:51;99031.44;;;9.75;49.53
76205;BME280;64986;55.672;37.628;2022-11-13T10:25:22;99047.09;;;9.57;50.30
76205;BME280;64986;55.672;37.628;2022-11-13T10:27:54;99078.97;;;9.15;50.77
76205;BME280;64986;55.672;37.628;2022-11-13T10:30:21;99066.47;;;8.58;51.97
76205;BME280;64986;55.672;37.628;2022-11-13T10:32:47;99078.13;;;8.29;52.85
76205;BME280;64986;55.672;37.628;2022-11-13T10:41:14;99067.00;;;10.97;47.88
76205;BME280;64986;55.672;37.628;2022-11-13T10:44:34;99067.78;;;12.85;44.86
76205;BME280;64986;55.672;37.628;2022-11-13T10:46:41;99088.66;;;13.45;41.83
76205;BME280;64986;55.672;37.628;2022-11-13T10:49:33;99073.09;;;13.60;40.74
76205;BME280;64986;55.672;37.628;2022-11-13T10:51:59;99104.34;;;14.60;40.09
76205;BME280;64986;55.672;37.628;2022-11-13T10:54:31;99093.78;;;14.03;40.27
76205;BME280;64986;55.672;37.628;2022-11-13T10:57:13;99107.09;;;14.37;37.10
76205;BME280;64986;55.672;37.628;2022-11-13T10:59:44;99100.97;;;13.27;41.62
76205;BME280;64986;55.672;37.628;2022-11-13T11:02:17;99112.72;;;14.12;39.02
76205;BME280;64986;55.672;37.628;2022-11-13T11:04:43;99097.84;;;12.18;40.36
76205;BME280;64986;55.672;37.628;2022-11-13T11:07:21;99115.44;;;11.15;42.98
76205;BME280;64986;55.672;37.628;2022-11-13T11:09:48;99126.41;;;9.92;45.72
76205;BME280;64986;55.672;37.628;2022-11-13T11:12:20;99134.31;;;8.74;48.25
76205;BME280;64986;55.672;37.628;2022-11-13T11:17:53;99151.78;;;8.34;50.29
76205;BME280;64986;55.672;37.628;2022-11-13T11:20:49;99098.94;;;10.82;45.67
76205;BME280;64986;55.672;37.628;2022-11-13T11:28:50;99148.69;;;13.96;38.15
76205;BME280;64986;55.672;37.628;2022-11-13T11:31:38;99193.88;;;14.06;38.47
76205;BME280;64986;55.672;37.628;2022-11-13T11:34:16;99169.03;;;14.64;36.65
76205;BME280;64986;55.672;37.628;2022-11-13T11:37:04;99160.66;;;15.40;35.53
76205;BME280;64986;55.672;37.628;2022-11-13T11:42:05;99167.97;;;11.34;42.17
76205;BME280;64986;55.672;37.628;2022-11-13T11:46:59;99170.34;;;9.78;46.82
76205;BME280;64986;55.672;37.628;2022-11-13T11:49:25;99172.25;;;8.92;47.85
76205;BME280;64986;55.672;37.628;2022-11-13T11:51:59;99152.66;;;8.48;49.38
76205;BME280;64986;55.672;37.628;2022-11-13T11:54:40;99167.09;;;8.24;50.41
76205;BME280;64986;55.672;37.628;2022-11-13T11:57:41;99177.03;;;8.42;49.66
76205;BME280;64986;55.672;37.628;2022-11-13T12:00:14;99193.44;;;9.36;46.79
76205;BME280;64986;55.672;37.628;2022-11-13T12:02:50;99196.59;;;9.85;47.05
76205;BME280;64986;55.672;37.628;2022-11-13T12:05:27;99195.66;;;10.17;45.30
76205;BME280;64986;55.672;37.628;2022-11-13T12:10:45;99218.84;;;9.82;46.65
76205;BME280;64986;55.672;37.628;2022-11-13T12:18:52;99233.00;;;9.74;47.55
76205;BME280;64986;55.672;37.628;2022-11-13T12:26:50;99209.25;;;10.59;45.71
76205;BME280;64986;55.672;37.628;2022-11-13T12:29:31;99316.09;;;10.02;46.75
76205;BME280;64986;55.672;37.628;2022-11-13T12:32:19;99239.06;;;8.76;48.33
76205;BME280;64986;55.672;37.628;2022-11-13T12:34:55;99287.16;;;8.00;50.54
76205;BME280;64986;55.672;37.628;2022-11-13T12:37:42;99292.78;;;8.32;50.05
76205;BME280;64986;55.672;37.628;2022-11-13T12:43:27;99249.25;;;7.40;52.45
76205;BME280;64986;55.672;37.628;2022-11-13T12:50:43;99312.63;;;7.50;53.21
76205;BME280;64986;55.672;37.628;2022-11-13T12:53:42;99260.47;;;7.28;53.62
76205;BME280;64986;55.672;37.628;2022-11-13T12:56:14;99292.22;;;7.24;53.95
76205;BME280;64986;55.672;37.628;2022-11-13T13:01:19;99320.97;;;6.97;54.74
76205;BME280;64986;55.672;37.628;2022-11-13T13:12:06;99313.81;;;6.69;56.02
76205;BME280;64986;55.672;37.628;2022-11-13T13:15:10;99261.38;;;6.77;56.02
76205;BME280;64986;55.672;37.628;2022-11-13T13:17:36;99280.09;;;6.74;55.79
76205;BME280;64986;55.672;37.628;2022-11-13T13:20:29;99330.50;;;6.68;56.21
76205;BME280;64986;55.672;37.628;2022-11-13T13:22:57;99337.47;;;6.61;56.40
76205;BME280;64986;55.672;37.628;2022-11-13T13:25:27;99345.84;;;6.56;57.26
76205;BME280;64986;55.672;37.628;2022-11-13T13:27:58;99343.81;;;6.37;58.49
76205;BME280;64986;55.672;37.628;2022-11-13T13:30:24;99372.81;;;6.42;57.89
76205;BME280;64986;55.672;37.628;2022-11-13T13:35:38;99354.06;;;6.09;58.38
76205;BME280;64986;55.672;37.628;2022-11-13T13:41:01;99358.22;;;6.18;58.72
76205;BME280;64986;55.672;37.628;2022-11-13T13:43:59;99374.69;;;6.19;58.54
76205;BME280;64986;55.672;37.628;2022-11-13T13:46:32;99412.09;;;6.19;58.87
76205;BME280;64986;55.672;37.628;2022-11-13T13:49:04;99364.63;;;6.16;58.10
76205;BME280;64986;55.672;37.628;2022-11-13T13:54:05;99390.03;;;6.07;58.91
76205;BME280;64986;55.672;37.628;2022-11-13T13:56:33;99376.94;;;6.07;59.54
76205;BME280;64986;55.672;37.628;2022-11-13T13:59:00;99386.44;;;6.23;59.33
76205;BME280;64986;55.672;37.628;2022-11-13T14:01:33;99376.69;;;6.17;59.00
76205;BME280;64986;55.672;37.628;2022-11-13T14:04:19;99388.06;;;6.24;58.90
76205;BME280;64986;55.672;37.628;2022-11-13T14:07:16;99410.03;;;6.15;59.27
76205;BME280;64986;55.672;37.628;2022-11-13T14:09:42;99392.41;;;5.94;59.76
76205;BME280;64986;55.672;37.628;2022-11-13T14:12:17;99423.41;;;5.97;60.13
76205;BME280;64986;55.672;37.628;2022-11-13T14:14:43;99448.59;;;5.90;59.75
76205;BME280;64986;55.672;37.628;2022-11-13T14:17:10;99421.88;;;5.79;59.73
76205;BME280;64986;55.672;37.628;2022-11-13T14:19:36;99409.88;;;5.70;60.43
76205;BME280;64986;55.672;37.628;2022-11-13T14:22:04;99362.63;;;5.80;60.25
76205;BME280;64986;55.672;37.628;2022-11-13T14:24:53;99390.09;;;5.76;60.47